Time;durP1;ratioP1;P1;durP2;ratioP2;P2;SDS_P1;SDS_P2;PMS_P1;PMS_P2;Temp;Humidity;BMP_temperature;BMP_pressure;BME280_temperature;BME280_humidity;BME280_pressure;Samples;Min_cycle;Max_cycle;Signal;HPM_P1;HPM_P2
2022/06/09 00:01:02;;;;;;;5.45;4.07;;;;;;;12.76;100.00;90452.97;5052700;28;20052;-65
2022/06/09 00:04:02;;;;;;;6.95;4.07;;;;;;;12.79;100.00;90458.44;5052549;28;20120;-65
2022/06/09 00:06:53;;;;;;;5.57;4.10;;;;;;;12.80;100.00;90456.56;5052384;28;20418;-65
2022/06/09 00:09:22;;;;;;;5.90;3.75;;;;;;;12.80;100.00;90445.88;5052599;28;20430;-65
2022/06/09 00:11:50;;;;;;;6.55;4.43;;;;;;;12.88;100.00;90448.41;5052532;28;20111;-65
2022/06/09 00:14:17;;;;;;;4.90;3.70;;;;;;;12.93;100.00;90438.63;5052379;28;20095;-66
2022/06/09 00:16:43;;;;;;;5.00;3.30;;;;;;;12.86;100.00;90423.19;5052423;28;20028;-65
2022/06/09 00:19:09;;;;;;;5.38;3.30;;;;;;;12.77;100.00;90446.53;5052350;28;20491;-65
2022/06/09 00:21:36;;;;;;;4.22;3.28;;;;;;;12.75;100.00;90438.06;5052276;28;20040;-65
2022/06/09 00:24:03;;;;;;;4.45;3.25;;;;;;;12.76;100.00;90426.28;5052118;28;20082;-65
2022/06/09 00:26:29;;;;;;;4.35;3.35;;;;;;;12.75;100.00;90420.16;5052307;28;20052;-64
2022/06/09 00:28:55;;;;;;;3.50;2.28;;;;;;;12.80;100.00;90409.28;5052004;28;20037;-64
2022/06/09 00:31:21;;;;;;;4.63;2.72;;;;;;;12.87;100.00;90403.38;5052156;28;20108;-63
2022/06/09 00:33:47;;;;;;;3.58;2.78;;;;;;;12.90;100.00;90408.03;5052086;28;20112;-64
2022/06/09 00:36:12;;;;;;;5.30;3.63;;;;;;;13.02;100.00;90401.91;5052142;28;20499;-64
2022/06/09 00:38:38;;;;;;;4.13;3.55;;;;;;;13.07;100.00;90401.69;5052061;28;20513;-64
2022/06/09 00:41:04;;;;;;;4.43;3.55;;;;;;;13.10;100.00;90393.03;5034131;28;20025;-64
2022/06/09 00:43:31;;;;;;;6.95;4.30;;;;;;;13.17;100.00;90390.53;5051771;28;20040;-64
2022/06/09 00:45:59;;;;;;;5.60;4.00;;;;;;;13.23;100.00;90378.53;5051868;28;20025;-64
2022/06/09 00:48:49;;;;;;;4.65;3.88;;;;;;;13.22;100.00;90386.88;5051817;28;20033;-64
2022/06/09 00:51:26;;;;;;;5.57;3.53;;;;;;;13.24;100.00;90380.09;5051785;28;20017;-64
2022/06/09 00:53:57;;;;;;;5.32;3.40;;;;;;;13.30;100.00;90375.31;5051716;28;20112;-65
2022/06/09 00:56:23;;;;;;;6.03;3.25;;;;;;;13.35;100.00;90378.50;5051723;28;20098;-65
2022/06/09 00:58:53;;;;;;;4.22;3.40;;;;;;;13.38;100.00;90379.72;5051632;28;20029;-65
2022/06/09 01:01:20;;;;;;;4.70;3.10;;;;;;;13.40;100.00;90377.50;5051789;28;20029;-65
2022/06/09 01:03:59;;;;;;;3.53;2.70;;;;;;;13.43;100.00;90374.94;5051727;28;20033;-65
2022/06/09 01:06:30;;;;;;;3.97;2.88;;;;;;;13.42;100.00;90368.03;5051348;28;20049;-65
2022/06/09 01:09:04;;;;;;;3.50;2.92;;;;;;;13.32;100.00;90365.84;5051430;28;20028;-65
2022/06/09 01:11:30;;;;;;;3.65;2.70;;;;;;;13.23;100.00;90365.19;5051613;28;20040;-65
2022/06/09 01:13:57;;;;;;;3.55;2.75;;;;;;;13.24;100.00;90374.75;5051275;28;20037;-65
2022/06/09 01:16:38;;;;;;;3.78;2.90;;;;;;;13.26;100.00;90379.78;5033409;28;20056;-65
2022/06/09 01:19:06;;;;;;;4.20;2.90;;;;;;;13.15;100.00;90372.19;5051277;28;20162;-65
2022/06/09 01:21:40;;;;;;;5.07;3.10;;;;;;;13.16;100.00;90362.28;5051291;28;20040;-65
2022/06/09 01:24:41;;;;;;;4.25;3.33;;;;;;;13.06;100.00;90352.06;5051090;28;20024;-65
2022/06/09 01:27:07;;;;;;;6.43;3.28;;;;;;;13.02;100.00;90357.31;4967084;28;20044;-65
2022/06/09 01:29:39;;;;;;;8.20;3.70;;;;;;;12.99;100.00;90362.53;5051076;28;20021;-65
2022/06/09 01:32:22;;;;;;;6.97;3.60;;;;;;;12.95;100.00;90361.66;5050958;28;20041;-65
2022/06/09 01:34:50;;;;;;;5.22;3.38;;;;;;;12.98;100.00;90363.66;5051042;28;20551;-65
2022/06/09 01:37:41;;;;;;;4.30;3.30;;;;;;;12.95;100.00;90367.00;5051050;28;20040;-65
2022/06/09 01:40:09;;;;;;;4.72;3.10;;;;;;;12.97;100.00;90364.78;5050370;28;20072;-65
2022/06/09 01:42:35;;;;;;;5.47;3.33;;;;;;;12.95;100.00;90361.66;5050861;28;20036;-65
2022/06/09 01:45:09;;;;;;;5.22;3.13;;;;;;;12.87;100.00;90366.78;5050843;28;20033;-65
2022/06/09 01:47:59;;;;;;;6.43;3.53;;;;;;;12.78;100.00;90358.13;5050912;28;20029;-65
2022/06/09 01:50:45;;;;;;;5.00;3.70;;;;;;;12.75;100.00;90366.78;5050824;28;20056;-64
2022/06/09 01:53:32;;;;;;;6.72;3.72;;;;;;;12.62;100.00;90361.78;5050710;28;20029;-64
2022/06/09 01:56:18;;;;;;;6.13;3.97;;;;;;;12.65;100.00;90374.47;5050761;28;20029;-65
2022/06/09 01:58:49;;;;;;;6.93;4.10;;;;;;;12.71;100.00;90381.91;5050650;28;20025;-65
2022/06/09 02:01:17;;;;;;;7.13;4.07;;;;;;;12.86;100.00;90381.25;5050725;28;20036;-65
2022/06/09 02:03:45;;;;;;;6.85;3.85;;;;;;;12.98;100.00;90382.34;5050676;28;20037;-65
2022/06/09 02:06:12;;;;;;;5.78;3.50;;;;;;;13.00;100.00;90374.78;5063972;28;20049;-65
2022/06/09 02:08:39;;;;;;;6.75;3.55;;;;;;;13.05;100.00;90369.97;5070711;28;20033;-64
2022/06/09 02:11:09;;;;;;;6.43;4.00;;;;;;;13.12;100.00;90374.75;5070654;28;20036;-65
2022/06/09 02:13:39;;;;;;;6.65;3.83;;;;;;;13.19;100.00;90372.31;5070536;28;20111;-65
2022/06/09 02:16:08;;;;;;;5.55;3.78;;;;;;;13.27;100.00;90368.75;5070872;28;20025;-65
2022/06/09 02:18:39;;;;;;;12.40;4.13;;;;;;;13.41;100.00;90361.16;5070568;28;20044;-65
2022/06/09 02:21:33;;;;;;;4.65;3.38;;;;;;;13.38;100.00;90358.34;5052503;28;20031;-65
2022/06/09 02:23:59;;;;;;;6.00;3.25;;;;;;;13.27;100.00;90358.06;5067488;28;20498;-64
2022/06/09 02:26:25;;;;;;;4.43;2.85;;;;;;;13.39;100.00;90365.25;5070470;28;20035;-64
2022/06/09 02:28:50;;;;;;;4.13;2.85;;;;;;;13.47;100.00;90367.78;5070520;28;20033;-65
2022/06/09 02:31:18;;;;;;;3.10;2.53;;;;;;;13.36;100.00;90364.03;5070554;28;20549;-65
2022/06/09 02:33:44;;;;;;;4.63;3.47;;;;;;;13.39;100.00;90366.03;5070434;28;20509;-65
2022/06/09 02:36:10;;;;;;;3.65;2.53;;;;;;;13.45;100.00;90364.69;5070427;28;20379;-65
2022/06/09 02:38:35;;;;;;;4.10;2.90;;;;;;;13.49;100.00;90370.13;5070416;28;20062;-64
2022/06/09 02:41:01;;;;;;;2.97;2.30;;;;;;;13.40;100.00;90364.91;5070495;28;20035;-65
2022/06/09 02:43:27;;;;;;;5.60;3.13;;;;;;;13.44;100.00;90370.38;5070315;28;20048;-65
2022/06/09 02:45:53;;;;;;;7.78;3.17;;;;;;;13.44;100.00;90368.47;5070340;28;20154;-65
2022/06/09 02:48:19;;;;;;;4.03;3.10;;;;;;;13.40;100.00;90370.25;5070367;28;20128;-65
2022/06/09 02:50:51;;;;;;;4.85;3.08;;;;;;;13.44;100.00;90376.50;5071745;28;20024;-65
2022/06/09 02:53:17;;;;;;;4.25;3.60;;;;;;;13.40;100.00;90367.59;5073937;28;20417;-65
2022/06/09 02:55:42;;;;;;;4.03;3.17;;;;;;;13.37;100.00;90364.81;5074047;28;20027;-65
2022/06/09 02:58:08;;;;;;;3.80;2.92;;;;;;;13.40;100.00;90372.94;5074184;28;20028;-65
2022/06/09 03:00:34;;;;;;;6.53;3.85;;;;;;;13.40;100.00;90378.25;5073813;28;20025;-65
2022/06/09 03:03:03;;;;;;;7.43;3.70;;;;;;;13.41;100.00;90379.84;5055865;28;20036;-65
2022/06/09 03:05:31;;;;;;;3.90;3.22;;;;;;;13.55;100.00;90381.34;5055665;28;20048;-65
2022/06/09 03:07:57;;;;;;;4.75;2.83;;;;;;;13.58;100.00;90378.78;5074085;28;20494;-65
2022/06/09 03:10:23;;;;;;;3.33;2.63;;;;;;;13.62;100.00;90378.88;5074103;28;20449;-66
2022/06/09 03:12:48;;;;;;;6.22;3.17;;;;;;;13.65;100.00;90381.66;5073667;28;20479;-66
2022/06/09 03:15:19;;;;;;;4.47;3.08;;;;;;;13.64;100.00;90371.31;5073745;28;20186;-65
2022/06/09 03:17:44;;;;;;;4.60;2.92;;;;;;;13.69;100.00;90376.41;5073475;28;20024;-66
2022/06/09 03:20:33;;;;;;;9.35;5.57;;;;;;;13.58;100.00;90373.44;5073556;28;20040;-65
2022/06/09 03:22:59;;;;;;;5.55;2.85;;;;;;;13.68;100.00;90377.50;5073353;28;20028;-66
2022/06/09 03:25:25;;;;;;;6.85;2.97;;;;;;;13.77;100.00;90383.50;5073460;28;20074;-65
2022/06/09 03:27:51;;;;;;;6.03;3.05;;;;;;;13.83;100.00;90376.78;5073477;28;20056;-65
2022/06/09 03:30:17;;;;;;;5.95;3.35;;;;;;;13.97;100.00;90382.50;5073450;28;20577;-66
2022/06/09 03:32:42;;;;;;;3.60;2.63;;;;;;;14.03;100.00;90381.13;5073243;28;20526;-66
2022/06/09 03:35:08;;;;;;;3.45;2.70;;;;;;;14.09;100.00;90379.78;5073339;28;20501;-66
2022/06/09 03:37:35;;;;;;;5.07;3.35;;;;;;;14.15;100.00;90382.19;5073265;28;20383;-66
2022/06/09 03:40:01;;;;;;;6.22;2.72;;;;;;;14.12;100.00;90372.97;5073251;28;20028;-66
2022/06/09 03:42:26;;;;;;;3.60;2.60;;;;;;;14.06;100.00;90375.13;5073096;28;20032;-66
2022/06/09 03:44:52;;;;;;;5.25;3.10;;;;;;;13.97;100.00;90373.72;5073059;28;20028;-66
2022/06/09 03:47:17;;;;;;;4.15;2.63;;;;;;;14.11;100.00;90367.97;5055015;28;20106;-65
2022/06/09 03:49:43;;;;;;;5.38;3.42;;;;;;;14.14;100.00;90370.72;5073040;28;20440;-65
2022/06/09 03:52:08;;;;;;;3.53;2.63;;;;;;;14.22;100.00;90375.16;5054875;28;20490;-66
2022/06/09 03:54:34;;;;;;;3.30;2.10;;;;;;;14.25;100.00;90373.69;5072873;28;20552;-66
2022/06/09 03:56:59;;;;;;;2.80;2.50;;;;;;;14.14;100.00;90370.72;5072872;28;20025;-65
2022/06/09 03:59:25;;;;;;;2.78;2.22;;;;;;;14.23;100.00;90371.34;5072784;28;20036;-65
2022/06/09 04:01:50;;;;;;;3.35;2.60;;;;;;;14.30;100.00;90374.19;5072189;28;20112;-65
2022/06/09 04:04:16;;;;;;;3.00;1.63;;;;;;;14.31;100.00;90372.28;5072681;28;20612;-65
2022/06/09 04:06:42;;;;;;;3.05;2.28;;;;;;;14.27;100.00;90371.44;5072192;28;20048;-65
2022/06/09 04:09:07;;;;;;;2.78;2.50;;;;;;;14.13;100.00;90371.06;5072581;28;20029;-65
2022/06/09 04:11:33;;;;;;;5.13;3.60;;;;;;;14.15;100.00;90379.53;5072580;28;20074;-65
2022/06/09 04:14:00;;;;;;;4.78;2.80;;;;;;;14.24;100.00;90372.13;5072409;28;20464;-65
2022/06/09 04:16:30;;;;;;;3.67;2.63;;;;;;;14.31;100.00;90369.63;5072504;28;20035;-65
2022/06/09 04:19:01;;;;;;;2.70;2.25;;;;;;;14.37;100.00;90376.28;5072395;28;20502;-66
2022/06/09 04:21:29;;;;;;;2.25;2.03;;;;;;;14.53;100.00;90370.97;5072368;28;20078;-64
2022/06/09 04:23:56;;;;;;;3.28;2.17;;;;;;;14.67;100.00;90374.78;5072204;28;20032;-64
2022/06/09 04:26:24;;;;;;;3.17;1.75;;;;;;;14.78;100.00;90369.66;5072293;28;20112;-64
2022/06/09 04:28:50;;;;;;;1.50;1.40;;;;;;;14.87;100.00;90380.19;5072296;28;20016;-64
2022/06/09 04:31:16;;;;;;;2.13;1.65;;;;;;;14.87;100.00;90372.16;5072181;28;20093;-64
2022/06/09 04:33:42;;;;;;;3.03;1.65;;;;;;;14.94;100.00;90374.97;5068727;28;20029;-64
2022/06/09 04:36:09;;;;;;;1.73;1.52;;;;;;;14.82;100.00;90365.16;5072049;28;20036;-64
2022/06/09 04:38:36;;;;;;;2.78;1.92;;;;;;;14.83;100.00;90364.03;5072024;28;20406;-64
2022/06/09 04:41:03;;;;;;;1.85;1.67;;;;;;;15.11;100.00;90366.56;5071959;28;20039;-64
2022/06/09 04:43:29;;;;;;;2.50;2.30;;;;;;;15.33;100.00;90362.47;5071821;28;20028;-65
2022/06/09 04:45:54;;;;;;;3.30;2.92;;;;;;;15.50;100.00;90363.97;5071874;28;20375;-65
2022/06/09 04:48:20;;;;;;;3.17;2.88;;;;;;;15.79;100.00;90366.13;5071867;28;20106;-64
2022/06/09 04:50:45;;;;;;;4.03;2.53;;;;;;;16.12;100.00;90376.34;5071729;28;20129;-65
2022/06/09 04:53:11;;;;;;;6.82;2.10;;;;;;;16.36;100.00;90372.53;5071702;28;20033;-65
2022/06/09 04:55:39;;;;;;;2.55;2.33;;;;;;;16.30;100.00;90370.50;5071677;28;20043;-64
2022/06/09 04:58:05;;;;;;;3.22;2.03;;;;;;;16.33;100.00;90362.50;5071673;28;20040;-64
2022/06/09 05:00:31;;;;;;;2.20;2.00;;;;;;;16.29;100.00;90369.75;5071578;28;20040;-65
2022/06/09 05:02:59;;;;;;;1.92;1.73;;;;;;;16.51;100.00;90364.72;5071556;28;20041;-67
2022/06/09 05:05:30;;;;;;;2.13;1.77;;;;;;;16.90;100.00;90354.66;5071243;28;20063;-68
2022/06/09 05:07:56;;;;;;;2.28;2.00;;;;;;;17.14;100.00;90364.22;5071434;28;20502;-66
2022/06/09 05:10:22;;;;;;;2.63;2.10;;;;;;;17.20;100.00;90363.56;5071480;28;20090;-66
2022/06/09 05:12:47;;;;;;;2.72;2.33;;;;;;;17.20;100.00;90358.19;5071195;28;20037;-66
2022/06/09 05:15:15;;;;;;;2.72;1.98;;;;;;;17.40;100.00;90366.91;5070503;28;20028;-66
2022/06/09 05:17:41;;;;;;;2.25;2.05;;;;;;;17.54;100.00;90361.72;5071361;28;20047;-66
2022/06/09 05:20:06;;;;;;;2.90;2.13;;;;;;;17.77;100.00;90363.56;5071342;28;20494;-66
2022/06/09 05:22:32;;;;;;;5.30;2.20;;;;;;;17.80;100.00;90362.84;5071179;28;20077;-66
2022/06/09 05:24:59;;;;;;;2.75;2.20;;;;;;;17.80;100.00;90358.22;5071134;28;20387;-66
2022/06/09 05:27:26;;;;;;;2.47;1.92;;;;;;;17.87;100.00;90357.56;5071515;28;20028;-65
2022/06/09 05:29:51;;;;;;;2.40;2.20;;;;;;;18.03;100.00;90360.81;5071072;28;20112;-66
2022/06/09 05:32:17;;;;;;;5.85;3.00;;;;;;;18.14;100.00;90358.22;5071071;28;20111;-66
2022/06/09 05:34:43;;;;;;;4.97;3.25;;;;;;;17.90;100.00;90356.81;5071354;28;20104;-66
2022/06/09 05:37:08;;;;;;;4.70;2.95;;;;;;;17.90;100.00;90365.66;5071084;28;20487;-66
2022/06/09 05:45:04;;;;;;;3.35;2.60;;;;;;;18.03;100.00;90366.22;5071117;28;20116;-66
2022/06/09 05:47:30;;;;;;;4.32;2.63;;;;;;;18.04;100.00;90373.13;5070964;28;20422;-66
2022/06/09 05:49:55;;;;;;;5.57;2.63;;;;;;;18.31;100.00;90370.38;5070968;28;20067;-66
2022/06/09 05:52:25;;;;;;;6.10;3.10;;;;;;;18.14;100.00;90377.06;5070872;28;20111;-66
2022/06/09 05:54:51;;;;;;;6.75;3.78;;;;;;;18.60;100.00;90377.56;5070972;28;20070;-67
2022/06/09 05:57:19;;;;;;;6.55;3.10;;;;;;;18.50;100.00;90378.25;5070962;28;20042;-67
2022/06/09 05:59:44;;;;;;;4.40;2.67;;;;;;;18.93;100.00;90373.25;5070852;28;20090;-66
2022/06/09 06:02:13;;;;;;;3.20;2.60;;;;;;;19.06;100.00;90375.31;5070707;28;20036;-66
2022/06/09 06:04:39;;;;;;;5.47;3.30;;;;;;;19.08;100.00;90372.22;5070789;28;20116;-66
2022/06/09 06:07:04;;;;;;;3.25;2.50;;;;;;;19.45;100.00;90367.50;5069682;28;20032;-65
2022/06/09 06:09:30;;;;;;;4.90;2.67;;;;;;;19.48;100.00;90376.00;5070730;28;20097;-67
2022/06/09 06:11:56;;;;;;;4.65;2.88;;;;;;;19.80;100.00;90376.22;5070662;28;20123;-67
2022/06/09 06:14:23;;;;;;;4.00;2.88;;;;;;;19.22;100.00;90369.66;5070815;28;20169;-67
2022/06/09 06:16:49;;;;;;;4.22;2.65;;;;;;;19.34;100.00;90371.28;5070693;28;20025;-67
2022/06/09 06:19:17;;;;;;;3.47;2.70;;;;;;;19.74;100.00;90367.72;5070771;28;20035;-67
2022/06/09 06:21:44;;;;;;;3.42;2.70;;;;;;;19.78;100.00;90365.78;5053544;28;20021;-67
2022/06/09 06:24:11;;;;;;;3.85;2.90;;;;;;;20.34;100.00;90369.88;5050434;28;20490;-68
2022/06/09 06:26:37;;;;;;;3.55;2.92;;;;;;;20.14;100.00;90364.00;5053435;28;20494;-67
2022/06/09 06:29:05;;;;;;;5.25;2.40;;;;;;;20.42;100.00;90366.06;5054109;28;20040;-67
2022/06/09 06:31:31;;;;;;;4.60;3.30;;;;;;;20.44;100.00;90363.75;5054430;28;20029;-67
2022/06/09 06:33:58;;;;;;;3.00;2.47;;;;;;;20.82;96.90;90366.91;5054386;28;20044;-67
2022/06/09 06:36:23;;;;;;;3.92;2.80;;;;;;;20.80;96.88;90361.13;5054281;28;20025;-65
2022/06/09 06:38:49;;;;;;;4.88;2.92;;;;;;;22.33;85.25;90364.44;5054165;28;20036;-64
2022/06/09 06:41:16;;;;;;;2.80;2.50;;;;;;;23.84;74.24;90354.13;5054199;28;20055;-64
2022/06/09 06:43:41;;;;;;;2.65;2.42;;;;;;;24.81;67.68;90368.16;5053771;28;20557;-63
2022/06/09 06:46:07;;;;;;;3.78;2.50;;;;;;;24.40;66.54;90352.72;5054025;28;20526;-62
2022/06/09 06:48:34;;;;;;;4.13;2.70;;;;;;;23.30;68.80;90353.78;5053990;28;20475;-63
2022/06/09 06:50:59;;;;;;;2.95;2.60;;;;;;;24.42;70.37;90349.59;5054093;28;20033;-64
2022/06/09 06:53:25;;;;;;;5.50;3.35;;;;;;;25.95;64.73;90350.06;5053951;28;20548;-63
2022/06/09 06:55:51;;;;;;;8.38;3.25;;;;;;;28.12;57.54;90356.31;5054239;28;20528;-63
2022/06/09 06:58:16;;;;;;;2.10;1.90;;;;;;;30.14;49.88;90353.53;5053645;28;20868;-64
2022/06/09 07:00:42;;;;;;;2.60;2.35;;;;;;;30.76;46.93;90353.75;5053879;28;20441;-64
2022/06/09 07:03:10;;;;;;;5.82;3.55;;;;;;;31.70;44.56;90347.84;5035634;28;20063;-63
2022/06/09 07:05:36;;;;;;;2.67;2.10;;;;;;;32.91;42.59;90348.38;5053711;28;20056;-63
2022/06/09 07:08:04;;;;;;;3.10;2.35;;;;;;;35.19;39.35;90353.97;5054082;28;20064;-63
2022/06/09 07:10:31;;;;;;;2.55;2.33;;;;;;;35.04;39.00;90347.66;5054010;28;20033;-64
2022/06/09 07:12:58;;;;;;;2.28;1.90;;;;;;;36.66;34.85;90346.69;5053297;28;20047;-65
2022/06/09 07:15:23;;;;;;;6.65;2.85;;;;;;;36.68;36.23;90342.16;5053742;28;20036;-64
2022/06/09 07:17:49;;;;;;;2.35;2.10;;;;;;;36.66;34.57;90339.13;5053685;28;20025;-64
2022/06/09 07:20:15;;;;;;;1.70;1.60;;;;;;;36.73;33.15;90347.00;5053566;28;20043;-64
2022/06/09 07:22:41;;;;;;;2.72;1.67;;;;;;;35.38;33.90;90338.75;5053433;28;20060;-64
2022/06/09 07:25:08;;;;;;;3.65;1.80;;;;;;;38.23;32.18;90338.63;5053540;28;20032;-65
2022/06/09 07:27:34;;;;;;;3.50;1.90;;;;;;;37.71;32.34;90333.13;5053669;28;20470;-64
2022/06/09 07:30:00;;;;;;;1.70;1.60;;;;;;;35.12;35.51;90329.47;5053275;28;20064;-64
2022/06/09 07:32:26;;;;;;;2.30;1.60;;;;;;;35.37;34.59;90331.69;5053404;28;20111;-64
2022/06/09 07:34:51;;;;;;;2.55;1.50;;;;;;;38.53;32.09;90339.06;5053450;28;20119;-64
2022/06/09 07:37:17;;;;;;;3.05;1.90;;;;;;;37.93;31.02;90329.06;5052391;28;20025;-64
2022/06/09 07:39:42;;;;;;;1.60;1.50;;;;;;;34.99;36.30;90323.44;5053384;28;20477;-64
2022/06/09 07:42:09;;;;;;;4.25;1.98;;;;;;;35.23;37.13;90321.38;5053099;28;20509;-64
2022/06/09 07:44:35;;;;;;;1.30;1.20;;;;;;;34.22;34.92;90330.44;5052530;28;20067;-64
2022/06/09 07:47:00;;;;;;;1.65;1.30;;;;;;;36.53;32.30;90325.59;5053104;28;20025;-64
2022/06/09 07:49:26;;;;;;;7.53;1.92;;;;;;;33.74;37.38;90320.56;5052994;28;20494;-63
2022/06/09 07:51:52;;;;;;;1.92;1.77;;;;;;;30.96;42.31;90302.78;5052815;28;20076;-63
2022/06/09 07:54:17;;;;;;;4.25;2.13;;;;;;;31.08;43.19;90298.41;5052788;28;20033;-64
2022/06/09 07:56:43;;;;;;;3.00;1.83;;;;;;;31.94;40.57;90311.56;5052707;28;20513;-63
2022/06/09 07:59:08;;;;;;;1.52;1.38;;;;;;;31.46;41.99;90305.63;5052177;28;20087;-63
2022/06/09 08:01:35;;;;;;;3.38;2.05;;;;;;;31.17;43.36;90306.69;5052469;28;20078;-62
2022/06/09 08:04:02;;;;;;;1.83;1.40;;;;;;;32.76;39.00;90304.13;5052618;28;20109;-63
2022/06/09 08:06:27;;;;;;;2.50;1.52;;;;;;;34.45;36.61;90308.84;5052321;28;20073;-63
2022/06/09 08:08:55;;;;;;;2.75;1.80;;;;;;;34.79;37.24;90299.94;5052457;28;20082;-63
2022/06/09 08:11:22;;;;;;;5.63;3.90;;;;;;;34.92;35.65;90301.72;5052425;28;20028;-64
2022/06/09 08:13:47;;;;;;;6.90;2.88;;;;;;;32.58;38.15;90298.63;5052161;28;20250;-64
2022/06/09 08:16:14;;;;;;;2.70;1.40;;;;;;;31.59;40.24;90295.28;5052542;28;20029;-64
2022/06/09 08:18:39;;;;;;;3.03;1.90;;;;;;;30.97;41.32;90293.31;5052375;28;20028;-65
2022/06/09 08:21:05;;;;;;;0.90;0.90;;;;;;;30.89;40.25;90296.78;5052426;28;20075;-68
2022/06/09 08:23:30;;;;;;;2.25;1.42;;;;;;;30.92;39.40;90301.34;5052122;28;20032;-68
2022/06/09 08:26:05;;;;;;;1.40;1.27;;;;;;;31.40;39.31;90301.91;5052185;28;20033;-68
2022/06/09 08:28:31;;;;;;;8.40;1.80;;;;;;;33.62;38.83;90308.53;5051810;28;20025;-68
2022/06/09 08:30:57;;;;;;;1.63;1.50;;;;;;;32.28;39.72;90303.06;5052213;28;20072;-72
2022/06/09 08:33:25;;;;;;;1.13;1.02;;;;;;;33.88;36.85;90300.59;5052006;28;20032;-69
2022/06/09 08:35:51;;;;;;;1.77;1.20;;;;;;;34.93;34.59;90292.94;5052003;28;20025;-70
2022/06/09 08:38:17;;;;;;;5.97;1.95;;;;;;;35.64;33.19;90283.56;5052001;28;20033;-71
2022/06/09 08:40:51;;;;;;;1.42;1.20;;;;;;;31.84;39.62;90281.28;5051879;28;20098;-69
2022/06/09 08:43:22;;;;;;;2.38;1.48;;;;;;;33.07;39.05;90278.38;5051314;28;20352;-69
2022/06/09 08:45:48;;;;;;;2.58;1.80;;;;;;;31.64;42.73;90272.66;5033831;28;20033;-68
2022/06/09 08:48:29;;;;;;;11.38;1.88;;;;;;;31.48;42.30;90278.44;5052904;28;20044;-67
2022/06/09 08:51:29;;;;;;;3.28;1.35;;;;;;;29.89;44.69;90264.59;5052082;28;20037;-67
2022/06/09 08:54:05;;;;;;;1.50;1.40;;;;;;;31.66;42.83;90272.97;5051733;28;20108;-67
2022/06/09 08:56:31;;;;;;;1.50;1.40;;;;;;;32.67;43.15;90278.59;5051604;28;20033;-67
2022/06/09 08:59:12;;;;;;;1.60;1.50;;;;;;;34.13;38.74;90261.50;5051315;28;20182;-67
2022/06/09 09:02:00;;;;;;;1.58;1.40;;;;;;;34.66;37.65;90269.06;5051497;28;20032;-68
2022/06/09 09:04:32;;;;;;;1.88;1.63;;;;;;;35.98;34.68;90273.00;5053778;28;20111;-67
2022/06/09 09:07:26;;;;;;;2.05;1.67;;;;;;;35.48;36.03;90275.00;5071014;28;20514;-68
2022/06/09 09:10:16;;;;;;;1.52;1.42;;;;;;;33.33;35.39;90274.03;5071190;28;20059;-68
2022/06/09 09:12:53;;;;;;;2.33;1.77;;;;;;;29.20;42.43;90267.25;5070643;28;20029;-67
2022/06/09 09:15:27;;;;;;;1.42;1.33;;;;;;;27.62;44.56;90253.69;5071178;28;20021;-67
2022/06/09 09:17:53;;;;;;;1.20;1.10;;;;;;;27.28;47.75;90254.13;5071108;28;20103;-68
2022/06/09 09:20:26;;;;;;;1.30;1.20;;;;;;;26.68;48.29;90258.28;5071166;28;20111;-67
2022/06/09 09:22:52;;;;;;;2.25;1.60;;;;;;;27.28;48.90;90247.91;5071115;28;20107;-67
2022/06/09 09:25:49;;;;;;;3.88;2.05;;;;;;;26.45;49.76;90250.97;5071053;28;20111;-67
2022/06/09 09:28:30;;;;;;;3.22;1.70;;;;;;;26.23;50.34;90250.63;5015576;28;20032;-67
2022/06/09 09:31:14;;;;;;;1.50;1.40;;;;;;;26.38;49.01;90257.34;5071121;28;20028;-67
2022/06/09 09:33:39;;;;;;;2.20;2.00;;;;;;;27.96;47.75;90239.53;5071028;28;20032;-67
2022/06/09 09:36:18;;;;;;;1.80;1.52;;;;;;;31.53;42.20;90233.84;5071126;28;20456;-67
2022/06/09 09:38:50;;;;;;;2.08;1.30;;;;;;;33.39;38.84;90241.06;5070971;28;20055;-68
2022/06/09 09:41:31;;;;;;;1.40;1.30;;;;;;;32.78;38.41;90237.53;5070427;28;20025;-69
2022/06/09 09:43:57;;;;;;;2.95;1.30;;;;;;;34.73;36.33;90235.53;5070777;28;20502;-67
2022/06/09 09:46:42;;;;;;;2.38;1.30;;;;;;;37.00;31.29;90229.38;5071011;28;20031;-70
2022/06/09 09:49:22;;;;;;;1.90;1.50;;;;;;;34.02;36.67;90228.13;5070996;28;20131;-68
2022/06/09 09:51:48;;;;;;;2.80;1.40;;;;;;;31.73;38.44;90223.22;5071148;28;20032;-68
2022/06/09 09:54:38;;;;;;;1.50;1.30;;;;;;;32.03;37.60;90227.03;5071035;28;20115;-69
2022/06/09 09:57:14;;;;;;;2.88;1.50;;;;;;;35.79;33.57;90227.41;5070980;28;20032;-69
2022/06/09 09:59:56;;;;;;;5.63;1.63;;;;;;;32.78;37.81;90226.53;5070592;28;20031;-69
2022/06/09 10:08:38;;;;;;;1.48;1.35;;;;;;;25.73;47.76;90207.25;5071168;28;20050;-68
2022/06/09 10:14:03;;;;;;;7.88;2.13;;;;;;;24.52;50.58;90207.31;5071086;28;20130;-70
2022/06/09 10:16:32;;;;;;;1.40;1.30;;;;;;;24.85;49.99;90207.56;5070769;28;20028;-69
2022/06/09 10:19:03;;;;;;;1.60;1.50;;;;;;;25.56;50.53;90201.69;5070801;28;20523;-69
2022/06/09 10:21:48;;;;;;;3.55;1.50;;;;;;;28.24;46.72;90207.09;5070549;28;20116;-69
2022/06/09 10:24:19;;;;;;;3.17;1.60;;;;;;;30.22;41.20;90201.19;5070687;28;20553;-69
2022/06/09 10:26:47;;;;;;;1.42;1.33;;;;;;;33.13;38.02;90215.09;5070631;28;20068;-69
2022/06/09 10:29:36;;;;;;;1.45;1.35;;;;;;;35.71;32.11;90216.00;5070906;28;20413;-69
2022/06/09 10:32:31;;;;;;;1.67;1.20;;;;;;;36.86;32.18;90213.59;5070532;28;20406;-70
2022/06/09 10:35:03;;;;;;;3.33;1.95;;;;;;;33.70;35.52;90206.88;5070296;28;20116;-69
2022/06/09 10:37:37;;;;;;;1.58;1.40;;;;;;;31.49;37.71;90197.47;5070587;28;20033;-69
2022/06/09 10:40:14;;;;;;;2.47;1.40;;;;;;;31.46;38.66;90193.66;5070856;28;20107;-69
2022/06/09 10:43:10;;;;;;;2.88;1.88;;;;;;;32.59;37.43;90203.78;5070319;28;20024;-69
2022/06/09 10:45:56;;;;;;;1.52;1.40;;;;;;;32.17;38.47;90200.91;5070349;28;20025;-69
2022/06/09 10:57:31;;;;;;;1.98;1.30;;;;;;;35.83;33.81;90192.00;5070496;28;20055;-69
2022/06/09 11:00:14;;;;;;;3.00;1.55;;;;;;;33.90;37.34;90179.47;5070296;28;20040;-69
2022/06/09 11:02:49;;;;;;;2.80;2.35;;;;;;;31.15;41.95;90170.97;5070225;28;20406;-68
2022/06/09 11:05:17;;;;;;;2.05;1.65;;;;;;;30.71;41.86;90176.63;5070044;28;20044;-68
2022/06/09 11:08:13;;;;;;;1.50;1.40;;;;;;;33.24;38.15;90176.75;5070217;28;20465;-69
2022/06/09 11:10:44;;;;;;;2.05;1.70;;;;;;;32.71;39.75;90166.25;5070515;28;20519;-68
2022/06/09 11:13:25;;;;;;;1.50;1.40;;;;;;;33.10;38.38;90177.44;5072032;28;20063;-69
2022/06/09 11:16:11;;;;;;;1.45;1.35;;;;;;;34.00;37.49;90174.63;5073770;28;20060;-69
2022/06/09 11:18:59;;;;;;;1.85;1.70;;;;;;;31.34;40.76;90183.56;5073698;28;20040;-68
2022/06/09 11:21:44;;;;;;;2.47;1.45;;;;;;;29.21;42.69;90183.88;5060066;28;20041;-69
2022/06/09 11:24:19;;;;;;;2.92;1.50;;;;;;;29.63;43.14;90167.19;5073613;28;20501;-69
2022/06/09 11:27:05;;;;;;;3.28;1.67;;;;;;;30.12;43.28;90164.69;5073462;28;20060;-69
2022/06/09 11:29:55;;;;;;;1.98;1.42;;;;;;;28.36;44.87;90173.56;5073523;28;20470;-69
2022/06/09 11:32:38;;;;;;;2.15;1.33;;;;;;;27.55;48.48;90169.16;5073422;28;20025;-69
2022/06/09 11:35:03;;;;;;;;;;;;;;;28.78;42.88;90159.78;5073916;28;20040;-69
2022/06/09 11:37:32;;;;;;;1.15;1.10;;;;;;;27.82;44.06;90160.66;5073313;28;19908;-69
2022/06/09 11:40:23;;;;;;;3.42;2.03;;;;;;;27.55;45.22;90149.28;5073411;28;20442;-69
2022/06/09 11:42:54;;;;;;;1.45;1.35;;;;;;;27.12;45.82;90150.38;5073206;28;20060;-69
2022/06/09 11:45:49;;;;;;;1.48;1.30;;;;;;;26.26;47.70;90148.88;5072958;28;20024;-69
2022/06/09 11:48:28;;;;;;;1.63;1.30;;;;;;;25.24;48.46;90145.09;5072479;28;20074;-69
2022/06/09 11:50:55;;;;;;;1.40;1.30;;;;;;;25.05;49.14;90148.56;5073047;28;20121;-69
2022/06/09 11:53:28;;;;;;;1.77;1.45;;;;;;;24.56;50.54;90137.31;5073051;28;20477;-69
2022/06/09 11:56:12;;;;;;;;;;;;;;;24.27;50.37;90131.50;5073684;28;20016;-69
2022/06/09 11:58:39;;;;;;;1.67;1.40;;;;;;;24.19;49.94;90128.16;5072959;28;19920;-69
2022/06/09 12:01:31;;;;;;;1.67;1.30;;;;;;;24.52;51.19;90128.44;5072805;28;20067;-68
2022/06/09 12:04:12;;;;;;;8.07;2.80;;;;;;;24.73;52.33;90127.31;5072964;28;20028;-67
2022/06/09 12:07:02;;;;;;;1.40;1.30;;;;;;;24.49;53.01;90132.75;5072503;28;20521;-67
2022/06/09 12:09:36;;;;;;;2.60;2.10;;;;;;;24.60;51.54;90124.41;5072664;28;20107;-68